Time;durP1;ratioP1;P1;durP2;ratioP2;P2;SDS_P1;SDS_P2;PMS_P1;PMS_P2;Temp;Humidity;BMP_temperature;BMP_pressure;BME280_temperature;BME280_humidity;BME280_pressure;Samples;Min_cycle;Max_cycle;Signal;HPM_P1;HPM_P2
2023/03/27 00:00:55;;;;;;;4.70;1.10;;;6.30;99.90;;;;;;5010374;28;20174;-78
2023/03/27 00:03:23;;;;;;;4.60;1.02;;;6.20;99.90;;;;;;5029259;28;20169;-78
2023/03/27 00:05:58;;;;;;;8.50;1.10;;;6.20;99.90;;;;;;5031209;28;20185;-78
2023/03/27 00:08:25;;;;;;;4.10;1.33;;;6.10;99.90;;;;;;5029885;28;20176;-78
2023/03/27 00:10:52;;;;;;;11.68;1.55;;;6.20;99.90;;;;;;5028724;28;20173;-78
2023/03/27 00:13:17;;;;;;;8.23;1.33;;;6.10;99.90;;;;;;5028997;28;20268;-77
2023/03/27 00:15:45;;;;;;;6.53;1.30;;;6.10;99.90;;;;;;5029415;28;20170;-78
2023/03/27 00:18:12;;;;;;;8.18;1.27;;;6.10;99.90;;;;;;5030435;28;20197;-79
2023/03/27 00:20:38;;;;;;;7.70;1.20;;;6.10;99.90;;;;;;5018983;28;20170;-78
2023/03/27 00:23:05;;;;;;;5.88;1.20;;;6.00;99.90;;;;;;5009142;28;20261;-78
2023/03/27 00:25:32;;;;;;;3.90;0.95;;;6.00;99.90;;;;;;5010824;28;20178;-78
2023/03/27 00:27:58;;;;;;;5.05;1.27;;;6.00;99.90;;;;;;5010664;28;20217;-79
2023/03/27 00:30:28;;;;;;;5.22;1.10;;;6.00;99.90;;;;;;5010904;28;20579;-79
2023/03/27 00:32:55;;;;;;;9.50;1.38;;;6.00;99.90;;;;;;5008670;28;20179;-78
2023/03/27 00:35:22;;;;;;;10.93;1.58;;;6.00;99.90;;;;;;5009481;28;20171;-78
2023/03/27 00:37:48;;;;;;;6.95;2.05;;;6.00;99.90;;;;;;5011416;28;20244;-78
2023/03/27 00:40:17;;;;;;;9.07;1.23;;;6.00;99.90;;;;;;5013310;28;20579;-78
2023/03/27 00:42:44;;;;;;;5.93;1.42;;;5.90;99.90;;;;;;5012521;28;20973;-78
2023/03/27 00:45:17;;;;;;;6.47;1.30;;;5.90;99.90;;;;;;5013545;28;20254;-78
2023/03/27 00:47:44;;;;;;;5.38;1.30;;;5.90;99.90;;;;;;5012786;28;20273;-78
2023/03/27 00:50:16;;;;;;;4.40;1.20;;;5.80;99.90;;;;;;4980850;28;20224;-78
2023/03/27 00:52:46;;;;;;;5.45;1.42;;;5.80;99.90;;;;;;4995777;28;20174;-78
2023/03/27 00:55:16;;;;;;;4.88;1.20;;;5.80;99.90;;;;;;5014377;28;20171;-78
2023/03/27 00:57:44;;;;;;;3.90;1.23;;;5.70;99.90;;;;;;5013891;28;20202;-79
2023/03/27 01:00:13;;;;;;;9.02;1.10;;;5.70;99.90;;;;;;5012765;28;20182;-78
2023/03/27 01:02:41;;;;;;;8.18;1.20;;;5.70;99.90;;;;;;4996904;28;20197;-78
2023/03/27 01:05:26;;;;;;;5.38;1.30;;;5.60;99.90;;;;;;5014090;28;20265;-79
2023/03/27 01:07:53;;;;;;;7.32;1.35;;;5.60;99.90;;;;;;5013209;28;20336;-78
2023/03/27 01:10:21;;;;;;;5.78;0.90;;;5.60;99.90;;;;;;4994739;28;20182;-79
2023/03/27 01:13:17;;;;;;;5.88;1.20;;;5.50;99.90;;;;;;5002001;28;20183;-78
2023/03/27 01:16:10;;;;;;;4.30;0.90;;;5.50;99.90;;;;;;4998464;28;20166;-78
2023/03/27 01:19:30;;;;;;;5.25;1.65;;;5.50;99.90;;;;;;4994255;28;20177;-79
2023/03/27 01:22:22;;;;;;;4.97;0.95;;;5.50;99.90;;;;;;4957818;28;21240;-78
2023/03/27 01:25:26;;;;;;;7.72;1.48;;;5.50;99.90;;;;;;4976457;28;20187;-78
2023/03/27 01:28:01;;;;;;;5.20;1.30;;;5.40;99.90;;;;;;4976793;28;20253;-78
2023/03/27 01:30:39;;;;;;;2.40;0.90;;;5.40;99.90;;;;;;4991386;28;20185;-78
2023/03/27 01:33:29;;;;;;;6.55;1.10;;;5.40;99.90;;;;;;5012194;28;20678;-78
2023/03/27 01:36:23;;;;;;;8.43;1.25;;;5.30;99.90;;;;;;4979412;28;20170;-78
2023/03/27 01:39:04;;;;;;;2.53;0.93;;;5.30;99.90;;;;;;5012351;28;20181;-78
2023/03/27 01:41:48;;;;;;;10.32;1.63;;;5.30;99.90;;;;;;5011382;28;20233;-78
2023/03/27 01:44:26;;;;;;;2.85;1.10;;;5.30;99.90;;;;;;4995824;28;20174;-78
2023/03/27 01:47:02;;;;;;;5.65;1.33;;;5.30;99.90;;;;;;4995211;28;20204;-78
2023/03/27 01:49:42;;;;;;;3.95;0.90;;;5.30;99.90;;;;;;5011610;28;20174;-78
2023/03/27 01:52:15;;;;;;;6.28;1.00;;;5.20;99.90;;;;;;5011486;28;20268;-78
2023/03/27 01:54:45;;;;;;;5.10;1.45;;;5.20;99.90;;;;;;5011864;28;20252;-78
2023/03/27 01:57:40;;;;;;;3.70;1.15;;;5.20;99.90;;;;;;5012027;28;20209;-79
2023/03/27 02:00:16;;;;;;;4.97;2.05;;;5.20;99.90;;;;;;4994865;28;20228;-79
2023/03/27 02:02:55;;;;;;;10.10;1.20;;;5.10;99.90;;;;;;5011250;28;20174;-79
2023/03/27 02:05:35;;;;;;;5.05;0.90;;;5.10;99.90;;;;;;5012027;28;20182;-79
2023/03/27 02:08:31;;;;;;;6.55;1.00;;;5.10;99.90;;;;;;4979086;28;20222;-79
2023/03/27 02:11:06;;;;;;;2.42;0.80;;;5.10;99.90;;;;;;4995266;28;20181;-79
2023/03/27 02:13:53;;;;;;;5.73;1.13;;;5.10;99.90;;;;;;4994485;28;20198;-79
2023/03/27 02:16:23;;;;;;;4.43;1.20;;;5.10;99.90;;;;;;4995314;28;20644;-79
2023/03/27 02:18:55;;;;;;;4.78;1.10;;;5.10;99.90;;;;;;4994973;28;20627;-79
2023/03/27 02:21:22;;;;;;;6.78;1.40;;;5.10;99.90;;;;;;4994627;28;20197;-79
2023/03/27 02:23:48;;;;;;;6.72;1.38;;;5.00;99.90;;;;;;5003328;28;20197;-79
2023/03/27 02:26:14;;;;;;;7.77;1.40;;;5.00;99.90;;;;;;4994985;28;20194;-79
2023/03/27 02:29:18;;;;;;;5.53;1.05;;;5.00;99.90;;;;;;5011395;28;20588;-79
2023/03/27 02:32:14;;;;;;;6.88;1.02;;;5.00;99.90;;;;;;5011362;28;20540;-79
2023/03/27 02:34:57;;;;;;;2.88;1.02;;;5.00;99.90;;;;;;5012621;28;20198;-79
2023/03/27 02:37:52;;;;;;;5.05;1.35;;;5.00;99.90;;;;;;4994964;28;20190;-79
2023/03/27 02:40:56;;;;;;;4.10;0.90;;;4.90;99.90;;;;;;5011066;28;20171;-79
2023/03/27 02:44:11;;;;;;;3.80;1.10;;;5.00;99.90;;;;;;4997002;28;20259;-79
2023/03/27 02:47:02;;;;;;;5.10;1.00;;;5.00;99.90;;;;;;4994518;28;20240;-79
2023/03/27 02:49:38;;;;;;;4.82;0.98;;;4.90;99.90;;;;;;4994636;28;20178;-79
2023/03/27 02:52:10;;;;;;;3.08;1.15;;;4.90;99.90;;;;;;4994109;28;20225;-79
2023/03/27 02:54:45;;;;;;;3.60;1.00;;;4.90;99.90;;;;;;4994564;28;20229;-79
2023/03/27 02:57:17;;;;;;;6.18;0.95;;;4.90;99.90;;;;;;4994000;28;20214;-79
2023/03/27 03:00:24;;;;;;;9.52;1.15;;;4.90;99.90;;;;;;4997114;28;20558;-79
2023/03/27 03:03:29;;;;;;;4.53;1.10;;;4.90;99.90;;;;;;4980052;28;20186;-79
2023/03/27 03:06:06;;;;;;;4.95;1.15;;;4.90;99.90;;;;;;5010817;28;20626;-79
2023/03/27 03:08:37;;;;;;;2.78;1.10;;;4.80;99.90;;;;;;5010739;28;20178;-79
2023/03/27 03:11:07;;;;;;;4.55;1.02;;;4.90;99.90;;;;;;4994209;28;20243;-79
2023/03/27 03:13:33;;;;;;;1.88;0.90;;;4.80;99.90;;;;;;4995366;28;20332;-79
2023/03/27 03:15:59;;;;;;;3.30;1.17;;;4.80;99.90;;;;;;4994823;28;20698;-78
2023/03/27 03:18:25;;;;;;;5.27;1.20;;;4.80;99.90;;;;;;5024127;28;20193;-79
2023/03/27 03:20:54;;;;;;;4.00;1.23;;;4.80;99.90;;;;;;4992315;28;20253;-78
2023/03/27 03:23:21;;;;;;;5.00;1.20;;;4.80;99.90;;;;;;4991727;28;20174;-78
2023/03/27 03:25:51;;;;;;;2.90;1.10;;;4.70;99.90;;;;;;4974723;28;20261;-78
2023/03/27 03:28:18;;;;;;;4.65;0.90;;;4.70;99.90;;;;;;4974024;28;20282;-79
2023/03/27 03:30:49;;;;;;;4.55;0.90;;;4.70;99.90;;;;;;4991018;28;20175;-79
2023/03/27 03:33:18;;;;;;;4.20;1.00;;;4.70;99.90;;;;;;4990192;28;20533;-78
2023/03/27 03:35:49;;;;;;;3.95;1.00;;;4.60;99.90;;;;;;4974742;28;20171;-79
2023/03/27 03:38:25;;;;;;;4.80;0.88;;;4.70;99.90;;;;;;4975528;28;20327;-78
2023/03/27 03:40:53;;;;;;;6.10;1.05;;;4.60;99.90;;;;;;4991610;28;20167;-78
2023/03/27 03:43:21;;;;;;;3.10;1.58;;;4.60;99.90;;;;;;4974386;28;20265;-78
2023/03/27 03:45:47;;;;;;;2.67;1.00;;;4.60;99.90;;;;;;4990403;28;20206;-78
2023/03/27 03:48:16;;;;;;;4.88;1.25;;;4.60;99.90;;;;;;4974370;28;20191;-78
2023/03/27 03:50:43;;;;;;;3.50;1.00;;;4.60;99.90;;;;;;4991804;28;20242;-78
2023/03/27 03:53:09;;;;;;;3.50;0.90;;;4.60;99.90;;;;;;4973941;28;20203;-78
2023/03/27 03:55:35;;;;;;;2.70;0.90;;;4.50;99.90;;;;;;4989987;28;20533;-78
2023/03/27 03:58:01;;;;;;;2.70;1.00;;;4.50;99.90;;;;;;4974050;28;20217;-78
2023/03/27 04:00:27;;;;;;;7.25;1.27;;;4.50;99.90;;;;;;4973736;28;20303;-78
2023/03/27 04:02:55;;;;;;;3.58;1.10;;;4.50;99.90;;;;;;4973541;28;20166;-77
2023/03/27 04:05:22;;;;;;;2.85;1.00;;;4.50;99.90;;;;;;4973440;28;20262;-78
2023/03/27 04:07:53;;;;;;;5.80;1.00;;;4.40;99.90;;;;;;4990392;28;20199;-78
2023/03/27 04:10:38;;;;;;;2.75;1.30;;;4.40;99.90;;;;;;4989924;28;20198;-78
2023/03/27 04:13:08;;;;;;;4.55;1.17;;;4.40;99.90;;;;;;4987544;28;20205;-78
2023/03/27 04:15:38;;;;;;;5.35;1.17;;;4.40;99.90;;;;;;5008641;28;20173;-78
2023/03/27 04:18:31;;;;;;;3.85;1.10;;;4.40;99.90;;;;;;5033694;28;20180;-76
2023/03/27 04:20:58;;;;;;;5.05;1.10;;;4.40;99.90;;;;;;4990431;28;20256;-75
2023/03/27 04:23:31;;;;;;;2.47;0.88;;;4.40;99.90;;;;;;5013469;28;20178;-75
2023/03/27 04:25:59;;;;;;;2.85;1.15;;;4.40;99.90;;;;;;4981256;28;20178;-75
2023/03/27 04:28:33;;;;;;;4.80;1.45;;;4.30;99.90;;;;;;5023287;28;20528;-75
2023/03/27 04:31:10;;;;;;;5.40;1.30;;;4.30;99.90;;;;;;5023379;28;20197;-76
2023/03/27 04:33:58;;;;;;;7.88;1.90;;;4.30;99.90;;;;;;5013175;28;20260;-76
2023/03/27 04:36:51;;;;;;;4.57;1.30;;;4.40;99.90;;;;;;5003206;28;20276;-76
2023/03/27 04:39:21;;;;;;;10.43;1.40;;;4.30;99.90;;;;;;5013078;28;20237;-78
2023/03/27 04:41:49;;;;;;;6.50;1.40;;;4.30;99.90;;;;;;5009672;28;20198;-79
2023/03/27 04:44:16;;;;;;;3.60;1.10;;;4.30;99.90;;;;;;5012872;28;20178;-79
2023/03/27 04:46:48;;;;;;;2.47;1.27;;;4.40;99.90;;;;;;4996895;28;20198;-79
2023/03/27 04:49:17;;;;;;;5.97;1.15;;;4.40;99.90;;;;;;4980111;28;20170;-80
2023/03/27 04:51:55;;;;;;;2.65;1.10;;;4.40;99.90;;;;;;5012758;28;20293;-79
2023/03/27 04:54:22;;;;;;;6.38;1.20;;;4.40;99.90;;;;;;5012643;28;20210;-80
2023/03/27 04:56:49;;;;;;;5.10;1.35;;;4.30;99.90;;;;;;5014255;28;20693;-79
2023/03/27 04:59:15;;;;;;;4.53;1.52;;;4.30;99.90;;;;;;5012634;28;20178;-81
2023/03/27 05:01:45;;;;;;;4.65;1.02;;;4.30;99.90;;;;;;5012467;28;20175;-80
2023/03/27 05:04:25;;;;;;;4.45;1.38;;;4.30;99.90;;;;;;5017261;28;20240;-81
2023/03/27 05:07:05;;;;;;;3.45;1.30;;;4.20;99.90;;;;;;4996637;28;20332;-80
2023/03/27 05:09:31;;;;;;;5.90;1.47;;;4.20;99.90;;;;;;5003389;28;20280;-81
2023/03/27 05:11:57;;;;;;;5.53;1.50;;;4.20;99.90;;;;;;5007107;28;20642;-80
2023/03/27 05:14:23;;;;;;;4.47;1.50;;;4.20;99.90;;;;;;5032352;28;20209;-81
2023/03/27 05:16:51;;;;;;;5.30;1.40;;;4.20;99.90;;;;;;5013572;28;20764;-79
2023/03/27 05:19:19;;;;;;;5.90;1.85;;;4.10;99.90;;;;;;4977024;28;20268;-81
2023/03/27 05:21:50;;;;;;;4.07;1.20;;;4.10;99.90;;;;;;4986833;28;20181;-82
2023/03/27 05:24:16;;;;;;;3.95;1.50;;;4.20;99.90;;;;;;4979448;28;20272;-82
2023/03/27 05:26:43;;;;;;;4.43;1.63;;;4.20;99.90;;;;;;5012458;28;20206;-81
2023/03/27 05:29:10;;;;;;;3.28;1.10;;;4.20;99.90;;;;;;5012704;28;20265;-81
2023/03/27 05:31:40;;;;;;;3.25;1.10;;;4.30;99.90;;;;;;4996385;28;20600;-81
2023/03/27 05:34:28;;;;;;;5.70;1.25;;;4.30;99.90;;;;;;4990604;28;20221;-80
2023/03/27 05:37:04;;;;;;;4.47;1.40;;;4.30;99.90;;;;;;5016022;28;20528;-81
2023/03/27 05:39:30;;;;;;;2.25;0.95;;;4.40;99.90;;;;;;5012822;28;20585;-82
2023/03/27 05:41:56;;;;;;;6.93;2.30;;;4.50;99.90;;;;;;4999714;28;20173;-81
2023/03/27 05:44:22;;;;;;;5.90;1.40;;;4.50;99.90;;;;;;5012177;28;20581;-81
2023/03/27 05:46:49;;;;;;;3.60;1.20;;;4.50;99.90;;;;;;5020226;28;20530;-81
2023/03/27 05:49:21;;;;;;;3.20;1.25;;;4.60;99.90;;;;;;5012448;28;20194;-80
2023/03/27 05:51:52;;;;;;;5.20;1.50;;;4.70;99.90;;;;;;4996168;28;20239;-80
2023/03/27 05:54:19;;;;;;;4.30;1.70;;;4.80;99.90;;;;;;4995598;28;20305;-80
2023/03/27 05:56:54;;;;;;;8.60;1.55;;;4.90;99.90;;;;;;4996216;28;20224;-80
2023/03/27 05:59:23;;;;;;;8.75;1.70;;;5.00;99.90;;;;;;5012813;28;20556;-80
2023/03/27 06:01:52;;;;;;;5.20;1.40;;;5.20;99.90;;;;;;5011824;28;20166;-79
2023/03/27 06:04:23;;;;;;;3.60;1.50;;;5.30;99.90;;;;;;5012322;28;20182;-80
2023/03/27 06:06:56;;;;;;;4.53;1.90;;;5.40;99.90;;;;;;5031735;28;20216;-80
2023/03/27 06:09:22;;;;;;;3.40;1.23;;;5.60;99.90;;;;;;5018500;28;20182;-79
2023/03/27 06:12:10;;;;;;;3.45;1.33;;;5.80;99.90;;;;;;5012722;28;20170;-80
2023/03/27 06:14:37;;;;;;;6.07;1.20;;;6.00;99.90;;;;;;4995292;28;20210;-80
2023/03/27 06:17:33;;;;;;;3.80;1.98;;;6.10;99.90;;;;;;5002595;28;20186;-80
2023/03/27 06:20:09;;;;;;;4.70;1.70;;;6.30;99.90;;;;;;4996035;28;20171;-80
2023/03/27 06:22:40;;;;;;;10.75;1.92;;;6.40;99.90;;;;;;4995135;28;20174;-79
2023/03/27 06:25:07;;;;;;;3.72;2.22;;;6.40;99.90;;;;;;4995690;28;20340;-80
2023/03/27 06:27:33;;;;;;;3.08;1.35;;;6.60;99.90;;;;;;4979045;28;20248;-81
2023/03/27 06:29:59;;;;;;;6.23;1.47;;;6.60;99.90;;;;;;4995285;28;20296;-81
2023/03/27 06:32:25;;;;;;;4.43;1.20;;;6.70;99.90;;;;;;4995115;28;20214;-81
2023/03/27 06:34:51;;;;;;;8.07;2.05;;;6.80;99.90;;;;;;5011541;28;20639;-80
2023/03/27 06:37:35;;;;;;;7.28;1.58;;;6.80;99.90;;;;;;4994673;28;20191;-80
2023/03/27 06:40:08;;;;;;;3.95;2.00;;;6.90;99.90;;;;;;5011558;28;20224;-79
2023/03/27 06:42:35;;;;;;;3.42;1.63;;;7.00;99.90;;;;;;4995047;28;20174;-79
2023/03/27 06:45:23;;;;;;;3.72;1.55;;;7.20;99.90;;;;;;5012875;28;20244;-80
2023/03/27 06:48:12;;;;;;;2.80;1.20;;;7.20;99.90;;;;;;5011343;28;20230;-80
2023/03/27 06:50:41;;;;;;;6.78;1.10;;;7.40;99.90;;;;;;5011642;28;20190;-80
2023/03/27 06:53:08;;;;;;;4.28;1.52;;;7.50;99.90;;;;;;5010588;28;20182;-80
2023/03/27 06:55:38;;;;;;;2.75;1.05;;;7.60;99.90;;;;;;5012230;28;20536;-81
2023/03/27 06:58:06;;;;;;;8.30;1.83;;;7.60;99.90;;;;;;4995134;28;20284;-81
2023/03/27 07:00:34;;;;;;;4.18;1.30;;;7.60;99.90;;;;;;4994663;28;20174;-81
2023/03/27 07:03:20;;;;;;;2.17;1.13;;;7.70;99.90;;;;;;5026035;28;20289;-80
2023/03/27 07:06:05;;;;;;;4.75;1.02;;;7.70;99.90;;;;;;5030356;28;20182;-80
2023/03/27 07:08:46;;;;;;;4.85;1.30;;;7.70;99.90;;;;;;5000289;28;20697;-80
2023/03/27 07:11:11;;;;;;;4.40;1.00;;;7.70;99.90;;;;;;5013884;28;20277;-82
2023/03/27 07:13:42;;;;;;;5.75;1.35;;;7.80;99.90;;;;;;5031576;28;20623;-82
2023/03/27 07:16:14;;;;;;;5.40;1.48;;;7.90;99.90;;;;;;5030226;28;20170;-81
2023/03/27 07:18:40;;;;;;;3.17;1.20;;;8.20;99.90;;;;;;5030725;28;20161;-81
2023/03/27 07:21:07;;;;;;;4.10;1.25;;;8.70;99.90;;;;;;5041083;28;20353;-81
2023/03/27 07:23:33;;;;;;;3.00;1.33;;;9.40;99.90;;;;;;4994887;28;20185;-82
2023/03/27 07:26:05;;;;;;;2.65;1.08;;;10.00;99.90;;;;;;5010517;28;20636;-82
2023/03/27 07:28:59;;;;;;;3.63;1.17;;;10.30;99.90;;;;;;5011520;28;20606;-82
2023/03/27 07:31:26;;;;;;;7.22;1.70;;;10.70;99.90;;;;;;4995344;28;20174;-83
2023/03/27 07:33:51;;;;;;;4.32;1.50;;;11.20;99.90;;;;;;5016387;28;20275;-83
2023/03/27 07:36:26;;;;;;;4.80;1.15;;;11.60;99.90;;;;;;4997233;28;20193;-83
2023/03/27 07:38:59;;;;;;;2.63;0.90;;;12.10;99.90;;;;;;4996562;28;20174;-82
2023/03/27 07:41:29;;;;;;;4.63;1.13;;;12.60;99.90;;;;;;4999546;28;20202;-83
2023/03/27 07:43:58;;;;;;;4.80;0.80;;;13.30;99.90;;;;;;5014578;28;20898;-82
2023/03/27 07:46:26;;;;;;;2.20;0.80;;;14.00;99.90;;;;;;5010710;28;20680;-82
2023/03/27 07:48:54;;;;;;;2.23;0.90;;;14.40;99.90;;;;;;4978697;28;20648;-82
2023/03/27 07:51:23;;;;;;;6.37;1.10;;;14.90;99.90;;;;;;5013368;28;20978;-82
2023/03/27 07:53:54;;;;;;;3.73;0.90;;;15.50;99.90;;;;;;5011567;28;20687;-82
2023/03/27 07:56:23;;;;;;;3.70;0.97;;;16.30;99.90;;;;;;4994818;28;20628;-83
2023/03/27 07:59:10;;;;;;;2.87;1.00;;;17.00;99.90;;;;;;5021197;28;20615;-83
2023/03/27 08:01:36;;;;;;;2.97;0.80;;;17.70;99.90;;;;;;5014231;28;20606;-83
2023/03/27 08:04:02;;;;;;;2.67;0.80;;;18.40;99.90;;;;;;5031618;28;20687;-82
2023/03/27 08:06:28;;;;;;;3.50;1.10;;;19.00;99.90;;;;;;5030553;28;20579;-83
2023/03/27 08:08:55;;;;;;;4.10;0.70;;;19.40;99.90;;;;;;5036293;28;20584;-82
2023/03/27 08:11:23;;;;;;;1.57;0.70;;;19.90;99.90;;;;;;5017389;28;20627;-84
2023/03/27 08:13:49;;;;;;;2.83;0.90;;;20.30;99.90;;;;;;5033710;28;20640;-81
2023/03/27 08:16:16;;;;;;;3.00;0.80;;;20.60;99.90;;;;;;5030748;28;20592;-81
2023/03/27 08:18:45;;;;;;;4.47;0.80;;;20.80;99.90;;;;;;5029696;28;20208;-82
2023/03/27 08:21:11;;;;;;;2.50;0.80;;;21.10;99.90;;;;;;5017147;28;20593;-81
2023/03/27 08:23:39;;;;;;;3.07;0.87;;;21.30;99.90;;;;;;4993637;28;20680;-81
2023/03/27 08:26:25;;;;;;;5.87;0.80;;;21.80;99.90;;;;;;5009966;28;20617;-81
2023/03/27 08:28:56;;;;;;;5.43;1.87;;;22.00;99.90;;;;;;4994874;28;20752;-81
2023/03/27 08:31:29;;;;;;;2.17;0.90;;;22.10;96.70;;;;;;5026223;28;20589;-81
2023/03/27 08:33:58;;;;;;;3.07;0.70;;;22.20;95.90;;;;;;4994005;28;20736;-81
2023/03/27 08:36:26;;;;;;;3.37;1.47;;;22.20;95.80;;;;;;4993462;28;20628;-81
2023/03/27 08:38:54;;;;;;;2.13;0.80;;;22.30;95.40;;;;;;5011015;28;20574;-81
2023/03/27 08:41:54;;;;;;;3.00;0.70;;;22.40;93.60;;;;;;4999230;28;20190;-82
2023/03/27 08:44:32;;;;;;;3.97;0.70;;;22.50;89.70;;;;;;5010203;28;20586;-82
2023/03/27 08:47:05;;;;;;;2.83;0.80;;;22.50;90.90;;;;;;5030786;28;20625;-82
2023/03/27 08:49:55;;;;;;;2.33;0.60;;;22.40;86.90;;;;;;5009778;28;20683;-82
2023/03/27 08:52:30;;;;;;;3.23;0.60;;;22.00;81.40;;;;;;5010929;28;20585;-81
2023/03/27 08:55:19;;;;;;;2.20;0.60;;;21.20;80.40;;;;;;5017283;28;20662;-82
2023/03/27 08:57:54;;;;;;;3.67;0.70;;;20.60;81.80;;;;;;5013901;28;20656;-81
2023/03/27 09:00:28;;;;;;;1.83;0.70;;;20.50;87.30;;;;;;5007047;28;20614;-81
2023/03/27 09:03:25;;;;;;;2.40;0.60;;;20.30;79.80;;;;;;5009576;28;20591;-81
2023/03/27 09:06:09;;;;;;;3.40;0.70;;;19.60;79.40;;;;;;5009171;28;21163;-81
2023/03/27 09:08:51;;;;;;;2.57;0.90;;;18.80;76.60;;;;;;5024671;28;20642;-81
2023/03/27 09:11:27;;;;;;;4.23;0.97;;;17.90;76.70;;;;;;5032515;28;20620;-82
2023/03/27 09:14:02;;;;;;;3.80;1.10;;;17.00;76.60;;;;;;5032548;28;20742;-82
2023/03/27 09:16:47;;;;;;;2.93;0.90;;;16.20;77.80;;;;;;5032238;28;20616;-81
2023/03/27 09:19:41;;;;;;;3.40;1.00;;;15.50;78.60;;;;;;5049389;28;20584;-81
2023/03/27 09:22:24;;;;;;;4.73;1.67;;;14.90;79.60;;;;;;4996331;28;21204;-82
2023/03/27 09:25:22;;;;;;;4.35;1.20;;;14.30;80.70;;;;;;4994272;28;20592;-82
2023/03/27 09:28:22;;;;;;;3.33;1.07;;;14.10;83.40;;;;;;4999031;28;20194;-81
2023/03/27 09:30:56;;;;;;;4.63;1.40;;;14.30;89.20;;;;;;4997089;28;20639;-81
2023/03/27 09:33:32;;;;;;;4.00;0.97;;;14.60;90.20;;;;;;5028588;28;20636;-81
2023/03/27 09:35:59;;;;;;;7.83;1.00;;;14.70;87.80;;;;;;5029113;28;20600;-81
2023/03/27 09:38:36;;;;;;;2.53;0.83;;;14.70;87.00;;;;;;5028759;28;20959;-82
2023/03/27 09:41:15;;;;;;;7.57;1.20;;;14.80;86.40;;;;;;4996114;28;20593;-81
2023/03/27 09:44:03;;;;;;;2.20;0.93;;;15.10;90.00;;;;;;4995759;28;20581;-82
2023/03/27 09:46:31;;;;;;;3.90;1.20;;;15.80;87.90;;;;;;5012751;28;20708;-82
2023/03/27 09:49:13;;;;;;;2.33;0.80;;;16.70;90.80;;;;;;5012245;28;20580;-81
2023/03/27 09:51:45;;;;;;;4.53;1.00;;;17.40;91.10;;;;;;5011953;28;20647;-81
2023/03/27 09:54:21;;;;;;;3.47;1.20;;;18.20;92.40;;;;;;4995706;28;20992;-81
2023/03/27 09:56:53;;;;;;;3.40;1.13;;;19.10;91.80;;;;;;4996088;28;20739;-80
2023/03/27 09:59:25;;;;;;;3.73;0.83;;;19.80;91.50;;;;;;5011827;28;20596;-80
2023/03/27 10:01:56;;;;;;;2.93;0.70;;;20.30;90.10;;;;;;5015499;28;21191;-79
2023/03/27 10:04:25;;;;;;;4.63;1.10;;;20.10;75.00;;;;;;5011669;28;20589;-79
2023/03/27 10:07:00;;;;;;;4.43;1.10;;;19.60;71.30;;;;;;5012278;28;20613;-81
2023/03/27 10:09:41;;;;;;;3.50;1.10;;;19.60;73.80;;;;;;4995362;28;20652;-80
2023/03/27 10:12:17;;;;;;;2.90;0.90;;;20.00;77.30;;;;;;4995076;28;20589;-81
2023/03/27 10:14:48;;;;;;;3.30;0.80;;;20.40;75.90;;;;;;4995474;28;21233;-81
2023/03/27 10:17:35;;;;;;;4.93;1.07;;;20.80;78.70;;;;;;5028151;28;20597;-81
2023/03/27 10:20:14;;;;;;;3.30;1.03;;;21.00;74.40;;;;;;4979188;28;20589;-81
2023/03/27 10:22:49;;;;;;;5.13;1.37;;;20.90;64.50;;;;;;5011077;28;20585;-81
2023/03/27 10:25:25;;;;;;;3.00;1.00;;;20.50;65.50;;;;;;5028167;28;20596;-81
2023/03/27 10:28:14;;;;;;;4.80;0.80;;;20.50;69.70;;;;;;5012236;28;20652;-81
2023/03/27 10:31:00;;;;;;;2.17;0.70;;;20.70;72.00;;;;;;4998151;28;20593;-80
2023/03/27 10:33:45;;;;;;;3.50;1.20;;;20.50;69.10;;;;;;5028030;28;20989;-82
2023/03/27 10:36:46;;;;;;;3.40;0.80;;;19.90;61.90;;;;;;5013770;28;20629;-82
2023/03/27 10:39:15;;;;;;;6.27;1.03;;;19.00;59.70;;;;;;4998233;28;20998;-83
2023/03/27 10:42:06;;;;;;;3.53;1.10;;;18.20;60.50;;;;;;5010617;28;20589;-82
2023/03/27 10:44:36;;;;;;;2.23;0.90;;;17.30;59.40;;;;;;5027455;28;20606;-82
2023/03/27 10:47:04;;;;;;;2.33;1.00;;;16.60;60.20;;;;;;5030817;28;21014;-82
2023/03/27 10:49:59;;;;;;;3.23;1.00;;;16.10;64.20;;;;;;5015957;28;20592;-82
2023/03/27 10:53:00;;;;;;;2.97;0.80;;;16.00;67.10;;;;;;5011029;28;20600;-82
2023/03/27 10:55:31;;;;;;;2.37;0.90;;;16.20;69.40;;;;;;5010887;28;20625;-81
2023/03/27 10:58:02;;;;;;;3.37;0.80;;;16.60;72.90;;;;;;5011011;28;20707;-82
2023/03/27 11:00:40;;;;;;;2.40;0.80;;;16.90;75.30;;;;;;5010839;28;20178;-82
2023/03/27 11:03:14;;;;;;;3.50;0.87;;;17.40;74.40;;;;;;5027398;28;20680;-83
2023/03/27 11:05:47;;;;;;;3.03;0.73;;;17.90;78.50;;;;;;5027374;28;20629;-82
2023/03/27 11:08:50;;;;;;;5.20;1.00;;;18.40;75.30;;;;;;5011018;28;20608;-81
2023/03/27 11:11:24;;;;;;;2.30;0.70;;;18.70;71.90;;;;;;5010087;28;20581;-83
2023/03/27 11:13:55;;;;;;;2.27;0.70;;;19.20;74.70;;;;;;5027326;28;21068;-83
2023/03/27 11:16:39;;;;;;;2.47;0.80;;;19.60;72.80;;;;;;4997668;28;20640;-83
2023/03/27 11:19:11;;;;;;;4.60;0.90;;;19.70;70.90;;;;;;5012203;28;21000;-82
2023/03/27 11:22:06;;;;;;;5.27;0.90;;;19.40;63.10;;;;;;5010041;28;20651;-83
2023/03/27 11:24:57;;;;;;;2.90;0.90;;;19.00;63.60;;;;;;4994502;28;20612;-83
2023/03/27 11:27:54;;;;;;;1.53;0.70;;;18.40;61.00;;;;;;5027031;28;21244;-83
2023/03/27 11:30:42;;;;;;;4.80;0.80;;;17.90;62.30;;;;;;5010727;28;20936;-82
2023/03/27 11:33:26;;;;;;;5.33;0.80;;;17.50;62.50;;;;;;4993258;28;20585;-82
2023/03/27 11:36:33;;;;;;;2.37;0.63;;;17.30;64.80;;;;;;4994965;28;20589;-81
2023/03/27 11:39:28;;;;;;;2.00;0.60;;;17.00;62.90;;;;;;4992351;28;20625;-84
2023/03/27 11:42:00;;;;;;;2.63;0.70;;;16.80;62.30;;;;;;5007240;28;20651;-81
2023/03/27 11:44:30;;;;;;;2.97;1.00;;;16.50;63.30;;;;;;5017774;28;20716;-82
2023/03/27 11:47:42;;;;;;;2.77;0.93;;;16.30;62.60;;;;;;5029852;28;20623;-81
2023/03/27 11:50:38;;;;;;;1.93;0.80;;;16.20;61.90;;;;;;5033861;28;20585;-81
2023/03/27 11:53:40;;;;;;;1.60;0.70;;;16.10;64.90;;;;;;5014292;28;20942;-81
2023/03/27 11:56:30;;;;;;;4.87;0.80;;;16.10;65.80;;;;;;5011086;28;21140;-81
2023/03/27 11:59:24;;;;;;;2.27;0.70;;;16.00;65.00;;;;;;5010188;28;20589;-82
2023/03/27 12:02:33;;;;;;;7.67;0.70;;;15.60;59.20;;;;;;4993109;28;20586;-81
2023/03/27 12:05:02;;;;;;;2.87;0.90;;;14.90;60.80;;;;;;4977505;28;20577;-81
2023/03/27 12:07:56;;;;;;;2.95;0.80;;;14.00;63.10;;;;;;5009985;28;21032;-81
2023/03/27 12:10:35;;;;;;;1.85;0.70;;;13.20;63.80;;;;;;4993914;28;20175;-81
2023/03/27 12:13:39;;;;;;;2.33;0.70;;;12.40;64.80;;;;;;5010817;28;20192;-81
2023/03/27 12:16:26;;;;;;;1.60;0.75;;;11.60;67.90;;;;;;5011572;28;20181;-81
2023/03/27 12:19:24;;;;;;;2.53;0.73;;;11.00;69.10;;;;;;5011890;28;20206;-82
2023/03/27 12:22:27;;;;;;;1.67;0.60;;;10.50;70.40;;;;;;4994439;28;20180;-80
2023/03/27 12:25:34;;;;;;;2.97;1.10;;;10.30;75.80;;;;;;4993393;28;20189;-80
2023/03/27 12:29:07;;;;;;;4.47;1.23;;;10.30;81.50;;;;;;4999760;28;20183;-82
2023/03/27 12:32:06;;;;;;;2.88;0.70;;;10.40;84.10;;;;;;5009245;28;20213;-80
2023/03/27 12:35:02;;;;;;;3.40;0.80;;;10.40;83.40;;;;;;5029606;28;20217;-80
2023/03/27 12:37:58;;;;;;;2.33;0.70;;;10.40;84.80;;;;;;5013405;28;20535;-81
2023/03/27 12:40:27;;;;;;;3.92;0.70;;;10.40;85.80;;;;;;5014497;28;20202;-80
2023/03/27 12:43:20;;;;;;;3.45;0.70;;;10.40;85.50;;;;;;5031191;28;20181;-80
2023/03/27 12:46:11;;;;;;;2.20;0.60;;;10.30;84.50;;;;;;5032952;28;20185;-80
2023/03/27 12:48:51;;;;;;;2.08;0.65;;;10.30;84.40;;;;;;5031613;28;20174;-82
2023/03/27 12:51:18;;;;;;;2.38;0.50;;;10.30;85.00;;;;;;5013882;28;20527;-80
2023/03/27 12:53:54;;;;;;;2.45;1.17;;;10.30;88.20;;;;;;4996625;28;20190;-81
2023/03/27 12:56:28;;;;;;;2.47;0.80;;;10.40;89.60;;;;;;4996320;28;20237;-80
2023/03/27 12:58:54;;;;;;;2.47;0.60;;;10.50;88.40;;;;;;4996729;28;20170;-80
2023/03/27 13:01:42;;;;;;;1.35;0.57;;;10.70;89.80;;;;;;5012347;28;20186;-80
2023/03/27 13:04:18;;;;;;;2.47;0.60;;;10.90;88.70;;;;;;4996824;28;20635;-81
2023/03/27 13:07:11;;;;;;;3.80;0.95;;;11.00;88.50;;;;;;5000812;28;20206;-81
2023/03/27 13:10:02;;;;;;;1.92;0.60;;;11.10;86.90;;;;;;5013043;28;20193;-81
2023/03/27 13:12:50;;;;;;;3.58;0.60;;;11.10;87.40;;;;;;5011649;28;20220;-81
2023/03/27 13:15:34;;;;;;;2.45;0.70;;;11.10;87.30;;;;;;4980605;28;20213;-81
2023/03/27 13:18:21;;;;;;;1.92;0.80;;;11.10;87.00;;;;;;4996198;28;20194;-81
2023/03/27 13:21:15;;;;;;;2.50;0.80;;;11.10;87.60;;;;;;4995521;28;20596;-81
2023/03/27 13:23:50;;;;;;;2.38;0.88;;;11.10;87.50;;;;;;4979586;28;20244;-80
2023/03/27 13:26:43;;;;;;;2.10;0.73;;;11.10;86.10;;;;;;4980723;28;20194;-80
2023/03/27 13:29:17;;;;;;;2.55;0.70;;;11.10;86.70;;;;;;5025948;28;20192;-81
2023/03/27 13:31:45;;;;;;;1.65;0.70;;;11.10;85.80;;;;;;5007026;28;20311;-81
2023/03/27 13:34:27;;;;;;;1.90;0.70;;;11.10;86.10;;;;;;5022087;28;20213;-82
2023/03/27 13:37:12;;;;;;;2.90;0.60;;;10.90;86.10;;;;;;4995358;28;20263;-81
2023/03/27 13:39:58;;;;;;;1.30;0.52;;;10.70;86.80;;;;;;5012251;28;20629;-81
2023/03/27 13:42:31;;;;;;;2.85;0.60;;;10.50;86.90;;;;;;5015551;28;20515;-82
2023/03/27 13:45:19;;;;;;;1.55;0.50;;;10.30;88.70;;;;;;5032439;28;20186;-80